createdAt,value
2022-10-17T00:01:07.796Z,101936.80
2022-10-17T00:03:34.978Z,101937.53
2022-10-17T00:06:05.983Z,101929.52
2022-10-17T00:08:32.641Z,101933.39
2022-10-17T00:11:01.266Z,101938.85
2022-10-17T00:13:28.063Z,101941.34
2022-10-17T00:15:54.928Z,101940.10
2022-10-17T00:18:21.593Z,101942.73
2022-10-17T00:20:48.249Z,101943.16
2022-10-17T00:23:14.936Z,101949.02
2022-10-17T00:25:41.756Z,101945.72
2022-10-17T00:28:12.399Z,101948.19
2022-10-17T00:30:39.203Z,101946.61
2022-10-17T00:33:05.951Z,101943.65
2022-10-17T00:35:32.876Z,101944.73
2022-10-17T00:37:59.580Z,101945.30
2022-10-17T00:40:26.326Z,101942.39
2022-10-17T00:42:53.252Z,101941.05
2022-10-17T00:45:21.376Z,101941.81
2022-10-17T00:48:14.437Z,101943.73
2022-10-17T00:50:42.512Z,101945.02
2022-10-17T00:53:26.457Z,101943.17
2022-10-17T00:55:53.116Z,101945.34
2022-10-17T00:58:19.776Z,101948.20
2022-10-17T01:00:47.020Z,101950.66
2022-10-17T01:03:15.065Z,101941.05
2022-10-17T01:05:42.033Z,101940.70
2022-10-17T01:08:08.780Z,101939.48
2022-10-17T01:10:45.620Z,101941.98
2022-10-17T01:13:15.249Z,101944.13
2022-10-17T01:15:41.860Z,101944.66
2022-10-17T01:18:37.771Z,101941.39
2022-10-17T01:21:30.932Z,101937.41
2022-10-17T01:24:25.253Z,101941.43
2022-10-17T01:27:10.766Z,101937.15
2022-10-17T01:29:56.018Z,101943.25
2022-10-17T01:32:31.560Z,101939.56
2022-10-17T01:35:00.356Z,101939.81
2022-10-17T01:37:41.453Z,101935.48
2022-10-17T01:40:17.400Z,101933.07
2022-10-17T01:42:53.265Z,101931.84
2022-10-17T01:45:23.588Z,101930.95
2022-10-17T01:47:50.882Z,101928.10
2022-10-17T01:50:20.313Z,101929.10
2022-10-17T01:52:59.263Z,101930.45
2022-10-17T01:55:32.156Z,101927.79
2022-10-17T01:58:10.692Z,101929.00
2022-10-17T02:00:44.388Z,101919.73
2022-10-17T02:03:14.224Z,101916.59
2022-10-17T02:05:41.569Z,101914.13
2022-10-17T02:08:09.703Z,101907.80
2022-10-17T02:10:57.099Z,101910.23
2022-10-17T02:13:29.781Z,101910.17
2022-10-17T02:16:08.610Z,101907.64
2022-10-17T02:18:47.076Z,101907.96
2022-10-17T02:21:43.085Z,101910.29
2022-10-17T02:24:17.763Z,101915.09
2022-10-17T02:26:47.201Z,101923.67
2022-10-17T02:29:16.831Z,101925.58
2022-10-17T02:31:45.182Z,101927.27
2022-10-17T02:34:33.844Z,101924.64
2022-10-17T02:37:02.177Z,101921.33
2022-10-17T02:39:29.048Z,101919.64
2022-10-17T02:41:57.136Z,101922.77
2022-10-17T02:44:23.827Z,101928.69
2022-10-17T02:46:55.963Z,101926.58
2022-10-17T02:49:23.997Z,101919.44
2022-10-17T02:51:56.803Z,101922.41
2022-10-17T02:54:25.205Z,101911.19
2022-10-17T02:56:59.154Z,101912.53
2022-10-17T02:59:25.909Z,101910.70
2022-10-17T03:01:52.692Z,101909.25
2022-10-17T03:04:19.484Z,101910.73
2022-10-17T03:06:47.113Z,101911.55
2022-10-17T03:09:14.071Z,101914.48
2022-10-17T03:11:40.915Z,101917.42
2022-10-17T03:14:07.973Z,101924.00
2022-10-17T03:16:34.733Z,101924.28
2022-10-17T03:19:01.475Z,101928.98
2022-10-17T03:21:28.212Z,101933.85
2022-10-17T03:23:55.304Z,101943.10
2022-10-17T03:26:22.116Z,101947.47
2022-10-17T03:28:51.952Z,101959.02
2022-10-17T03:31:21.260Z,101963.90
2022-10-17T03:33:48.243Z,101963.69
2022-10-17T03:36:16.272Z,101968.96
2022-10-17T03:38:46.469Z,101972.98
2022-10-17T03:41:13.378Z,101971.18
2022-10-17T03:43:40.128Z,101975.02
2022-10-17T03:46:07.963Z,101981.46
2022-10-17T03:48:35.006Z,101984.07
2022-10-17T03:51:08.554Z,101986.17
2022-10-17T03:53:39.750Z,101984.96
2022-10-17T03:56:10.650Z,101988.11
2022-10-17T03:58:37.452Z,101993.74
2022-10-17T04:01:08.978Z,101993.77
2022-10-17T04:03:35.712Z,101997.65
2022-10-17T04:06:02.844Z,101997.15
2022-10-17T04:08:31.348Z,101999.95
2022-10-17T04:11:13.853Z,102003.80
2022-10-17T04:13:40.849Z,102005.02
2022-10-17T04:16:08.754Z,102005.70
2022-10-17T04:18:36.816Z,102010.81
2022-10-17T04:21:04.302Z,102009.23
2022-10-17T04:23:31.345Z,102004.31
2022-10-17T04:26:01.328Z,102001.85
2022-10-17T04:28:41.605Z,102005.72
2022-10-17T04:31:10.351Z,101996.97
2022-10-17T04:33:48.673Z,101986.48
2022-10-17T04:36:17.108Z,101979.70
2022-10-17T04:38:44.160Z,101982.52
2022-10-17T04:41:12.704Z,101976.52
2022-10-17T04:43:39.737Z,101969.45
2022-10-17T04:46:11.692Z,101972.84
2022-10-17T04:48:38.670Z,101979.41
2022-10-17T04:51:07.576Z,101977.71
2022-10-17T04:53:42.959Z,101980.89
2022-10-17T04:56:10.544Z,101973.17
2022-10-17T04:58:37.981Z,101975.71
2022-10-17T05:01:06.993Z,101979.32
2022-10-17T05:03:34.812Z,101981.38
2022-10-17T05:06:09.932Z,101984.16
2022-10-17T05:08:37.066Z,101987.04
2022-10-17T05:11:04.135Z,101990.23
2022-10-17T05:13:30.896Z,101990.80
2022-10-17T05:16:01.294Z,101984.84
2022-10-17T05:18:28.829Z,101983.45
2022-10-17T05:20:56.789Z,101984.66
2022-10-17T05:23:23.739Z,101986.89
2022-10-17T05:25:54.752Z,101988.96
2022-10-17T05:28:23.985Z,101986.48
2022-10-17T05:30:52.014Z,101983.77
2022-10-17T05:33:18.732Z,101988.33
2022-10-17T05:35:45.506Z,101988.88
2022-10-17T05:38:12.246Z,101993.36
2022-10-17T05:40:39.576Z,101995.73
2022-10-17T05:43:06.448Z,101999.55
2022-10-17T05:45:33.366Z,101994.98
2022-10-17T05:48:00.275Z,101993.67
2022-10-17T05:57:53.965Z,102004.27
2022-10-17T06:00:22.023Z,102011.66
2022-10-17T06:02:54.077Z,102012.52
2022-10-17T06:05:22.227Z,102017.50
2022-10-17T06:07:52.534Z,102020.47
2022-10-17T06:10:20.149Z,102019.98
2022-10-17T06:12:46.968Z,102018.27
2022-10-17T06:15:15.060Z,102020.92
2022-10-17T06:17:44.811Z,102017.73
2022-10-17T06:20:11.650Z,102009.27
2022-10-17T06:22:38.331Z,102010.23
2022-10-17T06:25:10.676Z,102011.53
2022-10-17T06:27:37.398Z,102010.32
2022-10-17T06:30:04.948Z,102012.99
2022-10-17T06:32:32.157Z,102018.63
2022-10-17T06:34:59.489Z,102024.10
2022-10-17T06:37:32.301Z,102025.04
2022-10-17T06:40:04.168Z,102033.01
2022-10-17T06:42:31.793Z,102035.52
2022-10-17T06:45:08.923Z,102041.05
2022-10-17T06:47:53.535Z,102037.00
2022-10-17T06:50:38.686Z,102041.16
2022-10-17T06:53:17.831Z,102040.11
2022-10-17T06:56:04.391Z,102029.45
2022-10-17T06:58:52.955Z,102029.34
2022-10-17T07:01:41.870Z,102034.38
2022-10-17T07:04:11.640Z,102034.17
2022-10-17T07:06:38.877Z,102038.50
2022-10-17T07:09:11.492Z,102036.64
2022-10-17T07:11:38.360Z,102033.41
2022-10-17T07:14:05.106Z,102028.95
2022-10-17T07:16:33.704Z,102023.95
2022-10-17T07:19:29.593Z,102024.53
2022-10-17T07:21:56.445Z,102026.02
2022-10-17T07:24:23.207Z,102025.30
2022-10-17T07:27:13.754Z,102032.10
2022-10-17T07:29:40.661Z,102037.89
2022-10-17T07:32:31.003Z,102042.27
2022-10-17T07:34:58.649Z,102047.00
2022-10-17T07:37:25.705Z,102048.30
2022-10-17T07:39:56.647Z,102046.33
2022-10-17T07:42:23.424Z,102039.13
2022-10-17T07:44:51.149Z,102035.87
2022-10-17T07:47:18.859Z,102025.84
2022-10-17T07:49:47.234Z,102018.81
2022-10-17T07:52:14.308Z,102020.72
2022-10-17T07:54:41.399Z,102018.61
2022-10-17T07:57:08.112Z,102018.18
2022-10-17T07:59:35.122Z,102015.66
2022-10-17T08:02:01.940Z,102017.86
2022-10-17T08:04:28.762Z,102017.41
2022-10-17T08:07:05.458Z,102013.58
2022-10-17T08:09:38.644Z,102005.87
2022-10-17T08:12:05.521Z,102010.48
2022-10-17T08:14:32.294Z,102009.17
2022-10-17T08:16:59.134Z,102009.02
2022-10-17T08:19:25.901Z,102009.30
2022-10-17T08:21:54.381Z,102009.52
2022-10-17T08:24:21.183Z,102005.08
2022-10-17T08:26:49.578Z,102005.48
2022-10-17T08:29:18.626Z,102000.32
2022-10-17T08:31:49.984Z,101998.61
2022-10-17T08:34:19.300Z,101997.30
2022-10-17T08:36:47.056Z,101997.23
2022-10-17T08:39:13.868Z,101999.48
2022-10-17T08:41:49.745Z,101995.77
2022-10-17T08:44:30.098Z,101990.77
2022-10-17T08:46:59.204Z,101987.69
2022-10-17T08:49:51.581Z,101988.85
2022-10-17T08:52:33.373Z,101985.33
2022-10-17T08:55:00.212Z,101981.81
2022-10-17T08:57:28.986Z,101979.67
2022-10-17T08:59:57.235Z,101973.61
2022-10-17T09:02:44.456Z,101971.94
2022-10-17T09:05:37.652Z,101973.66
2022-10-17T09:08:31.996Z,101975.06
2022-10-17T09:11:03.959Z,101971.61
2022-10-17T09:13:41.373Z,101978.00
2022-10-17T09:16:24.518Z,101985.89
2022-10-17T09:18:57.557Z,101991.33
2022-10-17T09:21:30.562Z,101995.69
2022-10-17T09:24:09.053Z,101991.87
2022-10-17T09:26:38.861Z,101994.73
2022-10-17T09:29:10.839Z,101988.95
2022-10-17T09:31:42.758Z,101983.98
2022-10-17T09:34:09.869Z,101987.45
2022-10-17T09:36:38.538Z,101986.80
2022-10-17T09:39:14.233Z,101981.13
2022-10-17T09:41:48.100Z,101980.73
2022-10-17T09:44:23.089Z,101976.89
2022-10-17T09:47:27.244Z,101971.93
2022-10-17T09:49:53.875Z,101973.09
2022-10-17T09:52:25.703Z,101972.98
2022-10-17T09:55:03.325Z,101970.84
2022-10-17T09:57:30.654Z,101959.98
2022-10-17T10:00:01.929Z,101951.08
2022-10-17T10:02:30.594Z,101954.75
2022-10-17T10:05:07.101Z,101959.14
2022-10-17T10:07:37.098Z,101957.57
2022-10-17T10:10:05.912Z,101955.58
2022-10-17T10:12:35.029Z,101952.01
2022-10-17T10:15:02.233Z,101957.51
2022-10-17T10:17:36.876Z,101953.83
2022-10-17T10:20:36.852Z,101949.28
2022-10-17T10:23:15.011Z,101940.98
2022-10-17T10:25:59.874Z,101938.30
2022-10-17T10:28:29.089Z,101935.41
2022-10-17T10:30:55.976Z,101937.89
2022-10-17T10:33:23.791Z,101950.36
2022-10-17T10:35:59.525Z,101953.60
2022-10-17T10:38:26.229Z,101950.84
2022-10-17T10:40:54.979Z,101949.86
2022-10-17T10:43:25.476Z,101950.36
2022-10-17T10:45:52.306Z,101947.77
2022-10-17T10:48:51.360Z,101945.63
2022-10-17T10:51:21.379Z,101943.73
2022-10-17T10:54:20.958Z,101944.16
2022-10-17T10:56:52.637Z,101945.81
2022-10-17T10:59:35.510Z,101944.70
2022-10-17T11:04:17.762Z,101954.45
2022-10-17T11:06:45.009Z,101958.55
2022-10-17T11:09:33.950Z,101955.98
2022-10-17T11:12:12.213Z,101954.42
2022-10-17T11:14:51.220Z,101941.94
2022-10-17T11:17:50.417Z,101937.11
2022-10-17T11:20:27.126Z,101933.41
2022-10-17T11:23:01.646Z,101931.64
2022-10-17T11:25:36.881Z,101926.05
2022-10-17T11:28:23.937Z,101922.29
2022-10-17T11:31:03.344Z,101921.27
2022-10-17T11:33:44.746Z,101920.77
2022-10-17T11:36:11.491Z,101913.90
2022-10-17T11:38:49.470Z,101918.02
2022-10-17T11:41:20.878Z,101912.09
2022-10-17T11:43:54.190Z,101910.23
2022-10-17T11:46:24.617Z,101904.14
2022-10-17T11:49:20.575Z,101898.91
2022-10-17T11:52:01.557Z,101892.70
2022-10-17T11:54:39.026Z,101883.60
2022-10-17T11:57:24.586Z,101885.11
2022-10-17T12:00:32.445Z,101890.54
2022-10-17T12:03:16.058Z,101892.08
2022-10-17T12:05:48.653Z,101891.82
2022-10-17T12:08:26.923Z,101892.14
2022-10-17T12:11:01.137Z,101886.10
2022-10-17T12:13:28.589Z,101884.29
2022-10-17T12:15:58.086Z,101878.13
2022-10-17T12:18:27.282Z,101876.17
2022-10-17T12:20:58.080Z,101870.46
2022-10-17T12:23:29.272Z,101864.08
2022-10-17T12:26:01.574Z,101855.92
2022-10-17T12:28:37.561Z,101848.60
2022-10-17T12:31:13.265Z,101847.71
2022-10-17T12:33:46.241Z,101848.33
2022-10-17T12:36:21.214Z,101855.32
2022-10-17T12:38:50.222Z,101857.45
2022-10-17T12:41:17.846Z,101852.67
2022-10-17T12:46:51.207Z,101858.58
2022-10-17T12:49:46.589Z,101860.98
2022-10-17T12:52:31.854Z,101861.42
2022-10-17T12:55:14.031Z,101855.27
2022-10-17T12:58:05.537Z,101851.40
2022-10-17T13:00:43.802Z,101851.20
2022-10-17T13:03:30.607Z,101847.90
2022-10-17T13:06:05.656Z,101842.05
2022-10-17T13:08:34.295Z,101846.48
2022-10-17T13:11:01.044Z,101846.48
2022-10-17T13:13:39.197Z,101849.77
2022-10-17T13:16:06.080Z,101846.67
2022-10-17T13:18:32.976Z,101844.78
2022-10-17T13:21:01.957Z,101845.46
2022-10-17T13:23:36.030Z,101851.61
2022-10-17T13:26:22.228Z,101846.70
2022-10-17T13:29:04.884Z,101846.02
2022-10-17T13:31:36.356Z,101845.98
2022-10-17T13:34:05.161Z,101847.13
2022-10-17T13:36:32.450Z,101849.31
2022-10-17T13:39:00.331Z,101847.13
2022-10-17T13:41:36.808Z,101847.67
2022-10-17T13:44:13.373Z,101844.02
2022-10-17T13:46:40.171Z,101844.11
2022-10-17T13:49:18.811Z,101839.54
2022-10-17T13:51:47.295Z,101841.46
2022-10-17T13:54:32.030Z,101845.80
2022-10-17T13:56:59.009Z,101843.34
2022-10-17T13:59:48.067Z,101845.95
2022-10-17T14:02:17.411Z,101845.06
2022-10-17T14:05:15.207Z,101842.71
2022-10-17T14:08:13.048Z,101843.83
2022-10-17T14:10:42.900Z,101839.02
2022-10-17T14:13:19.806Z,101842.05
2022-10-17T14:15:46.595Z,101845.08
2022-10-17T14:18:25.504Z,101848.10
2022-10-17T14:23:43.570Z,101837.85
2022-10-17T14:26:36.915Z,101837.30
2022-10-17T14:29:06.172Z,101837.07
2022-10-17T14:31:34.089Z,101834.48
2022-10-17T14:34:01.787Z,101831.52
2022-10-17T14:36:36.288Z,101831.64
2022-10-17T14:39:03.664Z,101827.25
2022-10-17T14:41:48.078Z,101829.45
2022-10-17T14:44:26.684Z,101831.27
2022-10-17T14:46:59.420Z,101833.73
2022-10-17T14:49:30.497Z,101835.20
2022-10-17T14:52:18.356Z,101837.88
2022-10-17T14:54:47.123Z,101840.58
2022-10-17T14:57:19.420Z,101839.20
2022-10-17T14:59:55.100Z,101839.05
2022-10-17T15:02:27.270Z,101835.58
2022-10-17T15:04:54.300Z,101837.90
2022-10-17T15:07:21.343Z,101841.84
2022-10-17T15:09:50.595Z,101843.35
2022-10-17T15:12:23.289Z,101843.69
2022-10-17T15:14:50.746Z,101855.06
2022-10-17T15:17:20.887Z,101859.40
2022-10-17T15:19:50.846Z,101864.73
2022-10-17T15:22:18.349Z,101863.38
2022-10-17T15:24:47.965Z,101865.73
2022-10-17T15:27:22.585Z,101864.67
2022-10-17T15:29:49.541Z,101864.63
2022-10-17T15:32:16.220Z,101865.91
2022-10-17T15:34:42.856Z,101864.80
2022-10-17T15:37:21.731Z,101867.85
2022-10-17T15:39:54.534Z,101867.25
2022-10-17T15:42:22.515Z,101869.59
2022-10-17T15:44:50.365Z,101869.30
2022-10-17T15:47:35.405Z,101865.11
2022-10-17T15:50:02.203Z,101868.27
2022-10-17T15:52:28.817Z,101871.83
2022-10-17T15:54:57.287Z,101878.82
2022-10-17T15:57:30.322Z,101882.86
2022-10-17T15:59:57.807Z,101885.40
2022-10-17T16:02:24.659Z,101881.08
2022-10-17T16:04:51.589Z,101881.40
2022-10-17T16:07:19.039Z,101885.48
2022-10-17T16:09:45.808Z,101891.58
2022-10-17T16:12:17.353Z,101890.42
2022-10-17T16:14:44.119Z,101894.36
2022-10-17T16:17:15.255Z,101896.79
2022-10-17T16:19:42.742Z,101895.20
2022-10-17T16:22:26.780Z,101890.73
2022-10-17T16:24:58.936Z,101887.98
2022-10-17T16:27:26.417Z,101886.87
2022-10-17T16:29:53.167Z,101880.41
2022-10-17T16:32:20.019Z,101878.83
2022-10-17T16:34:46.747Z,101878.36
2022-10-17T16:37:13.445Z,101871.66
2022-10-17T16:39:40.113Z,101873.80
2022-10-17T16:42:07.109Z,101871.84
2022-10-17T16:44:34.020Z,101874.84
2022-10-17T16:47:00.707Z,101876.95
2022-10-17T16:49:27.388Z,101873.08
2022-10-17T16:51:54.046Z,101869.89
2022-10-17T16:54:20.706Z,101869.48
2022-10-17T16:56:47.389Z,101868.23
2022-10-17T16:59:14.109Z,101870.48
2022-10-17T17:01:41.725Z,101867.05
2022-10-17T17:04:09.441Z,101868.85
2022-10-17T17:06:36.748Z,101867.98
2022-10-17T17:09:03.497Z,101866.75
2022-10-17T17:11:31.477Z,101868.77
2022-10-17T17:13:58.717Z,101866.84
2022-10-17T17:16:26.404Z,101870.84
2022-10-17T17:19:02.916Z,101870.95
2022-10-17T17:21:29.730Z,101877.38
2022-10-17T17:23:58.359Z,101875.95
2022-10-17T17:26:25.606Z,101877.20
2022-10-17T17:28:53.516Z,101879.77
2022-10-17T17:31:24.798Z,101876.42
2022-10-17T17:33:52.169Z,101876.20
2022-10-17T17:36:23.202Z,101869.75
2022-10-17T17:38:50.573Z,101868.23
2022-10-17T17:41:18.328Z,101869.61
2022-10-17T17:43:46.015Z,101868.15
2022-10-17T17:46:13.121Z,101862.84
2022-10-17T17:48:41.173Z,101864.27
2022-10-17T17:51:11.261Z,101859.31
2022-10-17T17:53:38.148Z,101860.95
2022-10-17T17:56:10.176Z,101856.08
2022-10-17T17:58:37.109Z,101854.75
2022-10-17T18:01:12.351Z,101857.11
2022-10-17T18:03:41.197Z,101856.37
2022-10-17T18:06:08.082Z,101853.84
2022-10-17T18:08:35.177Z,101856.58
2022-10-17T18:11:01.930Z,101859.73
2022-10-17T18:13:28.689Z,101860.20
2022-10-17T18:15:57.949Z,101864.94
2022-10-17T18:18:25.562Z,101861.94
2022-10-17T18:20:52.459Z,101860.39
2022-10-17T18:23:19.737Z,101861.68
2022-10-17T18:26:05.217Z,101861.23
2022-10-17T18:28:36.948Z,101865.77
2022-10-17T18:31:24.304Z,101866.60
2022-10-17T18:33:55.525Z,101865.81
2022-10-17T18:36:22.406Z,101863.25
2022-10-17T18:38:49.158Z,101865.65
2022-10-17T18:41:18.070Z,101862.86
2022-10-17T18:43:45.707Z,101867.23
2022-10-17T18:46:21.386Z,101866.76
2022-10-17T18:48:48.571Z,101867.72
2022-10-17T18:51:17.142Z,101866.63
2022-10-17T18:53:45.041Z,101861.60
2022-10-17T18:56:12.144Z,101861.02
2022-10-17T18:58:39.188Z,101857.82
2022-10-17T19:01:07.974Z,101856.92
2022-10-17T19:03:34.804Z,101856.41
2022-10-17T19:06:02.991Z,101859.63
2022-10-17T19:08:29.849Z,101857.40
2022-10-17T19:10:56.634Z,101860.32
2022-10-17T19:13:23.324Z,101866.44
2022-10-17T19:15:50.055Z,101866.82
2022-10-17T19:18:17.043Z,101870.07
2022-10-17T19:20:44.543Z,101871.98
2022-10-17T19:23:11.790Z,101870.02
2022-10-17T19:25:38.484Z,101868.00
2022-10-17T19:28:05.137Z,101869.13
2022-10-17T19:30:31.815Z,101873.27
2022-10-17T19:32:58.925Z,101869.98
2022-10-17T19:35:25.609Z,101871.84
2022-10-17T19:37:52.425Z,101870.91
2022-10-17T19:40:19.240Z,101872.09
2022-10-17T19:42:45.997Z,101870.45
2022-10-17T19:45:12.654Z,101869.65
2022-10-17T19:47:40.836Z,101868.29
2022-10-17T19:50:07.892Z,101868.89
2022-10-17T19:52:34.535Z,101870.79
2022-10-17T19:55:01.257Z,101869.48
2022-10-17T19:57:27.920Z,101867.98
2022-10-17T19:59:56.028Z,101871.80
2022-10-17T20:02:23.355Z,101868.39
2022-10-17T20:05:06.332Z,101865.53
2022-10-17T20:07:36.840Z,101865.68
2022-10-17T20:10:03.805Z,101864.84
2022-10-17T20:12:30.828Z,101864.45
2022-10-17T20:14:57.818Z,101863.97
2022-10-17T20:17:24.785Z,101860.63
2022-10-17T20:19:51.648Z,101859.46
2022-10-17T20:22:18.341Z,101858.96
2022-10-17T20:24:45.444Z,101856.75
2022-10-17T20:27:12.089Z,101859.91
2022-10-17T20:29:38.946Z,101861.70
2022-10-17T20:32:05.762Z,101860.98
2022-10-17T20:34:35.535Z,101858.85
2022-10-17T20:37:02.489Z,101858.64
2022-10-17T20:39:29.455Z,101861.89
2022-10-17T20:41:56.550Z,101857.71
2022-10-17T20:44:23.267Z,101856.90
2022-10-17T20:47:01.213Z,101856.48
2022-10-17T20:49:28.696Z,101855.97
2022-10-17T20:51:55.382Z,101854.60
2022-10-17T20:54:22.453Z,101856.27
2022-10-17T20:56:49.189Z,101859.66
2022-10-17T20:59:16.681Z,101862.23
2022-10-17T21:01:43.722Z,101868.20
2022-10-17T21:04:40.287Z,101870.95
2022-10-17T21:06:57.399Z,101874.63
2022-10-17T21:09:24.039Z,101872.98
2022-10-17T21:11:54.416Z,101875.23
2022-10-17T21:14:21.902Z,101874.09
2022-10-17T21:16:48.647Z,101873.30
2022-10-17T21:19:18.990Z,101872.08
2022-10-17T21:21:46.303Z,101874.91
2022-10-17T21:24:16.909Z,101873.29
2022-10-17T21:26:44.680Z,101871.38
2022-10-17T21:29:12.374Z,101870.36
2022-10-17T21:31:40.614Z,101867.73
2022-10-17T21:34:15.120Z,101867.18
2022-10-17T21:36:41.827Z,101865.77
2022-10-17T21:39:09.791Z,101861.20
2022-10-17T21:41:36.571Z,101861.90
2022-10-17T21:44:05.119Z,101863.38
2022-10-17T21:46:32.017Z,101863.97
2022-10-17T21:48:59.038Z,101859.70
2022-10-17T21:51:26.028Z,101859.21
2022-10-17T21:53:53.977Z,101859.61
2022-10-17T21:56:23.685Z,101860.31
2022-10-17T21:58:50.872Z,101855.44
2022-10-17T22:01:20.155Z,101851.21
2022-10-17T22:03:48.426Z,101845.56
2022-10-17T22:09:04.748Z,101851.44
2022-10-17T22:11:34.589Z,101860.70
2022-10-17T22:14:03.237Z,101861.23
2022-10-17T22:16:29.868Z,101857.29
2022-10-17T22:19:00.523Z,101853.08
2022-10-17T22:21:29.970Z,101853.94
2022-10-17T22:23:58.791Z,101849.52
2022-10-17T22:26:26.341Z,101849.43
2022-10-17T22:28:53.090Z,101846.89
2022-10-17T22:31:19.884Z,101847.44
2022-10-17T22:33:46.578Z,101843.23
2022-10-17T22:36:13.296Z,101837.25
2022-10-17T22:38:40.016Z,101840.29
2022-10-17T22:41:06.848Z,101838.38
2022-10-17T22:43:33.465Z,101837.60
2022-10-17T22:46:01.684Z,101838.59
2022-10-17T22:48:28.601Z,101842.32
2022-10-17T22:50:55.851Z,101835.34
2022-10-17T22:53:24.288Z,101836.30
2022-10-17T22:56:00.913Z,101838.00
2022-10-17T22:58:28.440Z,101838.63
2022-10-17T23:00:55.214Z,101836.80
2022-10-17T23:03:22.179Z,101836.05
2022-10-17T23:05:48.877Z,101832.31
2022-10-17T23:08:16.010Z,101832.33
2022-10-17T23:10:42.733Z,101829.92
2022-10-17T23:13:09.517Z,101832.30
2022-10-17T23:15:36.239Z,101835.90
2022-10-17T23:18:02.985Z,101831.74
2022-10-17T23:21:40.802Z,101829.98
2022-10-17T23:24:07.448Z,101834.80
2022-10-17T23:26:34.095Z,101833.67
2022-10-17T23:29:00.828Z,101836.33
2022-10-17T23:31:27.540Z,101835.70
2022-10-17T23:33:54.186Z,101832.36
2022-10-17T23:36:21.127Z,101835.10
2022-10-17T23:38:48.021Z,101833.58
2022-10-17T23:41:14.676Z,101838.89
2022-10-17T23:43:41.387Z,101838.96
2022-10-17T23:46:08.453Z,101839.76
2022-10-17T23:48:35.220Z,101838.55
2022-10-17T23:51:01.898Z,101837.02
2022-10-17T23:53:28.663Z,101831.92
2022-10-17T23:55:55.329Z,101825.77
2022-10-17T23:58:22.013Z,101822.40
